createdAt,value
2023-03-28T00:00:21.641Z,41.73
2023-03-28T00:01:21.630Z,46.25
2023-03-28T00:02:21.651Z,47.37
2023-03-28T00:03:21.655Z,42.86
2023-03-28T00:04:21.713Z,41.57
2023-03-28T00:05:21.631Z,43.99
2023-03-28T00:06:21.673Z,41.25
2023-03-28T00:07:21.614Z,39.96
2023-03-28T00:08:21.584Z,44.63
2023-03-28T00:09:21.570Z,42.54
2023-03-28T00:10:21.570Z,41.89
2023-03-28T00:11:21.588Z,40.77
2023-03-28T00:12:21.572Z,44.96
2023-03-28T00:13:21.558Z,49.31
2023-03-28T00:14:21.554Z,43.18
2023-03-28T00:15:21.531Z,48.66
2023-03-28T00:16:21.590Z,38.67
2023-03-28T00:17:21.585Z,38.35
2023-03-28T00:18:21.521Z,39.32
2023-03-28T00:19:22.019Z,40.77
2023-03-28T00:20:21.499Z,38.67
2023-03-28T00:21:21.493Z,38.51
2023-03-28T00:22:21.506Z,41.73
2023-03-28T00:23:21.469Z,39.80
2023-03-28T00:24:21.625Z,40.12
2023-03-28T00:25:21.458Z,47.53
2023-03-28T00:26:21.457Z,40.61
2023-03-28T00:27:21.470Z,39.64
2023-03-28T00:28:21.433Z,39.96
2023-03-28T00:29:21.690Z,39.80
2023-03-28T00:30:21.420Z,47.05
2023-03-28T00:31:21.489Z,48.66
2023-03-28T00:32:21.428Z,40.77
2023-03-28T00:33:21.388Z,39.48
2023-03-28T00:34:21.381Z,51.24
2023-03-28T00:35:21.404Z,39.64
2023-03-28T00:36:21.367Z,41.09
2023-03-28T00:37:21.392Z,45.76
2023-03-28T00:38:21.361Z,41.57
2023-03-28T00:39:21.349Z,40.28
2023-03-28T00:40:21.344Z,50.43
2023-03-28T00:41:21.337Z,40.28
2023-03-28T00:42:21.352Z,38.99
2023-03-28T00:43:21.326Z,39.32
2023-03-28T00:44:21.314Z,42.06
2023-03-28T00:45:21.306Z,39.32
2023-03-28T00:46:21.318Z,38.83
2023-03-28T00:47:21.317Z,38.35
2023-03-28T00:48:21.289Z,39.96
2023-03-28T00:49:21.293Z,39.80
2023-03-28T00:50:21.262Z,41.73
2023-03-28T00:51:21.252Z,39.96
2023-03-28T00:52:21.277Z,39.64
2023-03-28T00:53:21.283Z,40.61
2023-03-28T00:54:21.242Z,40.12
2023-03-28T00:55:21.226Z,40.61
2023-03-28T00:56:21.217Z,38.99
2023-03-28T00:57:21.211Z,42.86
2023-03-28T00:58:21.248Z,40.93
2023-03-28T00:59:21.201Z,40.77
2023-03-28T01:00:21.227Z,40.28
2023-03-28T01:01:21.208Z,40.28
2023-03-28T01:02:21.204Z,40.77
2023-03-28T01:03:21.264Z,49.63
2023-03-28T01:04:21.156Z,46.08
2023-03-28T01:05:21.160Z,40.61
2023-03-28T01:06:22.142Z,41.89
2023-03-28T01:07:21.129Z,43.34
2023-03-28T01:08:21.154Z,41.89
2023-03-28T01:09:21.147Z,50.76
2023-03-28T01:10:21.106Z,51.88
2023-03-28T01:11:21.095Z,43.99
2023-03-28T01:12:21.101Z,42.54
2023-03-28T01:13:21.136Z,41.73
2023-03-28T01:14:21.081Z,38.19
2023-03-28T01:15:21.068Z,41.09
2023-03-28T01:16:21.097Z,38.99
2023-03-28T01:17:21.064Z,39.80
2023-03-28T01:18:21.067Z,50.60
2023-03-28T01:19:21.033Z,50.92
2023-03-28T01:20:21.028Z,42.38
2023-03-28T01:21:21.020Z,40.12
2023-03-28T01:22:21.010Z,49.47
2023-03-28T01:23:21.029Z,48.66
2023-03-28T01:24:20.994Z,50.43
2023-03-28T01:25:20.991Z,45.60
2023-03-28T01:26:20.993Z,48.50
2023-03-28T01:27:20.973Z,42.22
2023-03-28T01:28:20.987Z,47.37
2023-03-28T01:29:20.966Z,40.77
2023-03-28T01:30:20.948Z,41.25
2023-03-28T01:31:20.979Z,47.05
2023-03-28T01:32:20.945Z,51.24
2023-03-28T01:33:20.949Z,44.79
2023-03-28T01:34:20.928Z,47.53
2023-03-28T01:35:20.947Z,52.05
2023-03-28T01:36:34.147Z,51.72
2023-03-28T01:37:21.889Z,46.41
2023-03-28T01:38:20.920Z,48.18
2023-03-28T01:39:20.886Z,42.86
2023-03-28T01:40:20.870Z,46.08
2023-03-28T01:41:20.863Z,50.27
2023-03-28T01:42:20.861Z,47.21
2023-03-28T01:43:20.899Z,44.15
2023-03-28T01:44:20.841Z,41.41
2023-03-28T01:45:20.849Z,39.48
2023-03-28T01:46:20.891Z,39.64
2023-03-28T01:47:20.823Z,43.18
2023-03-28T01:48:20.856Z,48.66
2023-03-28T01:49:20.813Z,51.08
2023-03-28T01:50:20.806Z,41.41
2023-03-28T01:51:20.796Z,39.96
2023-03-28T01:52:20.795Z,40.44
2023-03-28T01:53:20.831Z,40.28
2023-03-28T01:54:20.770Z,39.64
2023-03-28T01:55:20.781Z,40.77
2023-03-28T01:56:20.778Z,49.31
2023-03-28T01:57:20.794Z,40.77
2023-03-28T01:58:20.752Z,50.27
2023-03-28T01:59:20.764Z,52.85
2023-03-28T02:00:20.752Z,48.50
2023-03-28T02:01:20.754Z,42.70
2023-03-28T02:02:20.806Z,42.22
2023-03-28T02:03:20.783Z,45.76
2023-03-28T02:04:21.422Z,43.83
2023-03-28T02:05:20.699Z,41.73
2023-03-28T02:06:20.684Z,41.73
2023-03-28T02:07:20.688Z,46.57
2023-03-28T02:08:20.715Z,47.05
2023-03-28T02:09:20.822Z,49.95
2023-03-28T02:10:20.654Z,41.57
2023-03-28T02:11:20.649Z,41.73
2023-03-28T02:12:20.642Z,39.96
2023-03-28T02:13:20.639Z,46.08
2023-03-28T02:14:20.655Z,53.66
2023-03-28T02:15:20.617Z,44.31
2023-03-28T02:16:20.652Z,47.37
2023-03-28T02:17:20.626Z,53.33
2023-03-28T02:18:20.652Z,49.47
2023-03-28T02:19:20.615Z,46.25
2023-03-28T02:20:20.596Z,51.72
2023-03-28T02:21:20.584Z,56.24
2023-03-28T02:22:20.582Z,43.02
2023-03-28T02:23:20.568Z,45.28
2023-03-28T02:24:20.587Z,40.93
2023-03-28T02:25:20.548Z,44.47
2023-03-28T02:26:20.552Z,44.63
2023-03-28T02:27:20.532Z,44.47
2023-03-28T02:28:20.533Z,53.66
2023-03-28T02:29:20.557Z,50.76
2023-03-28T02:30:20.518Z,46.08
2023-03-28T02:31:20.528Z,51.88
2023-03-28T02:32:20.496Z,50.60
2023-03-28T02:33:20.489Z,47.05
2023-03-28T02:34:20.509Z,43.02
2023-03-28T02:35:20.502Z,49.47
2023-03-28T02:36:20.469Z,52.37
2023-03-28T02:37:20.485Z,54.30
2023-03-28T02:38:20.452Z,49.79
2023-03-28T02:39:20.472Z,54.95
2023-03-28T02:40:20.446Z,53.17
2023-03-28T02:41:20.437Z,53.98
2023-03-28T02:42:20.430Z,46.89
2023-03-28T02:43:20.419Z,55.59
2023-03-28T02:44:20.929Z,48.66
2023-03-28T02:45:20.413Z,44.15
2023-03-28T02:46:20.414Z,40.77
2023-03-28T02:47:20.402Z,48.98
2023-03-28T02:48:20.388Z,47.70
2023-03-28T02:49:20.405Z,52.37
2023-03-28T02:50:20.382Z,60.91
2023-03-28T02:51:20.362Z,57.20
2023-03-28T02:52:20.361Z,54.14
2023-03-28T02:53:20.350Z,48.02
2023-03-28T02:54:20.364Z,45.60
2023-03-28T02:55:20.336Z,45.60
2023-03-28T02:56:20.324Z,54.14
2023-03-28T02:57:20.348Z,53.66
2023-03-28T02:58:20.311Z,51.88
2023-03-28T02:59:20.329Z,51.88
2023-03-28T03:00:20.289Z,47.37
2023-03-28T03:01:20.361Z,55.27
2023-03-28T03:02:20.284Z,49.31
2023-03-28T03:03:20.276Z,51.72
2023-03-28T03:04:20.292Z,48.98
2023-03-28T03:05:20.261Z,53.01
2023-03-28T03:06:20.243Z,56.56
2023-03-28T03:07:20.235Z,47.53
2023-03-28T03:08:20.239Z,48.98
2023-03-28T03:09:20.243Z,49.31
2023-03-28T03:10:20.226Z,51.08
2023-03-28T03:11:20.217Z,56.07
2023-03-28T03:12:20.194Z,53.98
2023-03-28T03:13:20.185Z,52.53
2023-03-28T03:14:20.211Z,50.92
2023-03-28T03:15:20.184Z,56.40
2023-03-28T03:16:20.211Z,49.79
2023-03-28T03:17:20.158Z,52.37
2023-03-28T03:18:20.158Z,57.52
2023-03-28T03:19:20.207Z,57.85
2023-03-28T03:20:20.142Z,52.85
2023-03-28T03:21:20.129Z,51.88
2023-03-28T03:22:20.841Z,54.46
2023-03-28T03:23:20.116Z,53.33
2023-03-28T03:24:20.105Z,48.66
2023-03-28T03:25:20.154Z,54.46
2023-03-28T03:26:20.090Z,56.88
2023-03-28T03:27:20.081Z,57.69
2023-03-28T03:28:20.074Z,53.66
2023-03-28T03:29:20.074Z,55.11
2023-03-28T03:30:20.088Z,58.17
2023-03-28T03:31:20.167Z,51.72
2023-03-28T03:32:20.043Z,50.92
2023-03-28T03:33:20.056Z,55.91
2023-03-28T03:34:20.032Z,54.46
2023-03-28T03:35:20.087Z,59.78
2023-03-28T03:36:20.017Z,57.69
2023-03-28T03:37:20.009Z,58.17
2023-03-28T03:38:20.003Z,56.40
2023-03-28T03:39:19.997Z,60.10
2023-03-28T03:40:20.010Z,57.20
2023-03-28T03:41:19.971Z,51.56
2023-03-28T03:42:19.974Z,52.85
2023-03-28T03:43:19.961Z,57.85
2023-03-28T03:44:19.967Z,57.69
2023-03-28T03:45:19.976Z,47.53
2023-03-28T03:46:19.977Z,52.37
2023-03-28T03:47:19.938Z,52.69
2023-03-28T03:48:19.922Z,62.20
2023-03-28T03:49:19.921Z,59.30
2023-03-28T03:50:19.936Z,53.33
2023-03-28T03:51:19.906Z,58.49
2023-03-28T03:52:19.895Z,53.01
2023-03-28T03:53:19.885Z,55.11
2023-03-28T03:54:19.888Z,44.47
2023-03-28T03:55:19.908Z,51.24
2023-03-28T03:56:19.859Z,50.27
2023-03-28T03:57:19.955Z,48.98
2023-03-28T03:58:20.499Z,50.60
2023-03-28T03:59:19.836Z,47.70
2023-03-28T04:00:19.867Z,49.31
2023-03-28T04:01:19.827Z,50.60
2023-03-28T04:02:19.850Z,52.53
2023-03-28T04:03:23.909Z,57.20
2023-03-28T04:04:20.802Z,55.91
2023-03-28T04:05:19.823Z,52.53
2023-03-28T04:06:19.788Z,45.44
2023-03-28T04:07:19.787Z,40.93
2023-03-28T04:08:19.773Z,44.47
2023-03-28T04:09:19.769Z,53.33
2023-03-28T04:10:19.804Z,55.59
2023-03-28T04:11:19.749Z,50.27
2023-03-28T04:12:19.739Z,47.86
2023-03-28T04:13:19.746Z,52.37
2023-03-28T04:14:19.728Z,50.43
2023-03-28T04:15:19.733Z,55.11
2023-03-28T04:16:19.759Z,50.27
2023-03-28T04:17:19.703Z,52.21
2023-03-28T04:18:19.719Z,60.59
2023-03-28T04:19:19.696Z,49.95
2023-03-28T04:20:19.686Z,52.85
2023-03-28T04:21:19.697Z,56.40
2023-03-28T04:22:19.692Z,53.01
2023-03-28T04:23:19.661Z,53.01
2023-03-28T04:24:19.652Z,53.33
2023-03-28T04:25:19.640Z,57.52
2023-03-28T04:26:19.658Z,54.95
2023-03-28T04:27:19.626Z,57.69
2023-03-28T04:28:19.616Z,58.01
2023-03-28T04:29:19.612Z,53.66
2023-03-28T04:30:19.604Z,59.46
2023-03-28T04:31:19.689Z,52.69
2023-03-28T04:32:19.589Z,60.59
2023-03-28T04:33:19.586Z,57.85
2023-03-28T04:34:19.576Z,59.62
2023-03-28T04:35:19.622Z,54.95
2023-03-28T04:36:19.592Z,51.40
2023-03-28T04:37:19.552Z,55.75
2023-03-28T04:38:20.670Z,57.20
2023-03-28T04:39:19.540Z,52.37
2023-03-28T04:40:19.532Z,51.24
2023-03-28T04:41:19.632Z,63.00
2023-03-28T04:42:19.517Z,58.81
2023-03-28T04:43:19.509Z,58.65
2023-03-28T04:44:19.501Z,58.97
2023-03-28T04:45:19.490Z,56.72
2023-03-28T04:46:19.556Z,53.66
2023-03-28T04:47:19.479Z,60.42
2023-03-28T04:48:19.474Z,60.91
2023-03-28T04:49:19.461Z,56.88
2023-03-28T04:50:19.462Z,59.30
2023-03-28T04:51:19.473Z,57.36
2023-03-28T04:52:19.438Z,58.81
2023-03-28T04:53:19.435Z,60.10
2023-03-28T04:54:19.442Z,59.30
2023-03-28T04:55:19.424Z,54.30
2023-03-28T04:56:19.436Z,54.62
2023-03-28T04:57:19.533Z,55.59
2023-03-28T04:58:19.390Z,58.97
2023-03-28T04:59:19.385Z,59.62
2023-03-28T05:00:19.387Z,55.11
2023-03-28T05:01:19.478Z,48.66
2023-03-28T05:02:19.370Z,51.24
2023-03-28T05:03:19.443Z,52.69
2023-03-28T05:04:19.354Z,53.17
2023-03-28T05:05:19.339Z,60.91
2023-03-28T05:06:19.363Z,51.56
2023-03-28T05:07:19.324Z,54.46
2023-03-28T05:08:19.321Z,61.23
2023-03-28T05:09:19.310Z,58.01
2023-03-28T05:10:19.308Z,58.33
2023-03-28T05:11:19.319Z,55.75
2023-03-28T05:12:20.290Z,56.72
2023-03-28T05:13:19.277Z,53.98
2023-03-28T05:14:19.268Z,59.78
2023-03-28T05:15:22.995Z,58.81
2023-03-28T05:16:19.297Z,59.30
2023-03-28T05:17:19.257Z,60.91
2023-03-28T05:18:19.248Z,56.07
2023-03-28T05:19:19.236Z,60.26
2023-03-28T05:20:19.222Z,58.49
2023-03-28T05:21:19.243Z,57.36
2023-03-28T05:22:19.219Z,57.52
2023-03-28T05:23:19.205Z,60.59
2023-03-28T05:24:19.207Z,57.52
2023-03-28T05:25:19.187Z,59.30
2023-03-28T05:26:19.333Z,55.91
2023-03-28T05:27:19.169Z,55.27
2023-03-28T05:28:19.157Z,57.85
2023-03-28T05:29:19.158Z,60.91
2023-03-28T05:30:19.151Z,58.65
2023-03-28T05:31:19.169Z,57.69
2023-03-28T05:32:19.128Z,53.98
2023-03-28T05:33:19.128Z,54.79
2023-03-28T05:34:19.116Z,55.11
2023-03-28T05:35:19.109Z,58.65
2023-03-28T05:36:19.158Z,56.56
2023-03-28T05:37:19.093Z,54.30
2023-03-28T05:38:19.093Z,58.65
2023-03-28T05:39:19.085Z,58.49
2023-03-28T05:40:19.077Z,56.72
2023-03-28T05:41:19.105Z,59.30
2023-03-28T05:42:19.083Z,56.40
2023-03-28T05:43:19.052Z,57.52
2023-03-28T05:44:19.084Z,57.52
2023-03-28T05:45:20.059Z,51.56
2023-03-28T05:46:19.132Z,52.85
2023-03-28T05:47:19.050Z,58.49
2023-03-28T05:48:19.022Z,58.01
2023-03-28T05:49:19.036Z,56.56
2023-03-28T05:50:18.995Z,53.82
2023-03-28T05:51:19.024Z,57.69
2023-03-28T05:52:18.984Z,51.08
2023-03-28T05:53:18.968Z,55.27
2023-03-28T05:54:18.968Z,54.30
2023-03-28T05:55:18.975Z,59.30
2023-03-28T05:56:18.976Z,54.30
2023-03-28T05:57:19.084Z,55.75
2023-03-28T05:58:18.944Z,57.85
2023-03-28T05:59:18.931Z,53.82
2023-03-28T06:00:18.917Z,55.11
2023-03-28T06:01:18.943Z,51.88
2023-03-28T06:02:18.906Z,53.33
2023-03-28T06:03:18.986Z,50.43
2023-03-28T06:04:18.920Z,50.92
2023-03-28T06:05:18.882Z,55.43
2023-03-28T06:06:18.897Z,55.11
2023-03-28T06:07:23.117Z,56.88
2023-03-28T06:08:20.858Z,54.46
2023-03-28T06:09:18.848Z,51.08
2023-03-28T06:10:18.846Z,53.50
2023-03-28T06:11:18.864Z,55.11
2023-03-28T06:12:18.819Z,56.56
2023-03-28T06:13:18.826Z,48.98
2023-03-28T06:14:19.973Z,50.76
2023-03-28T06:15:18.798Z,53.33
2023-03-28T06:16:18.835Z,50.92
2023-03-28T06:17:19.836Z,53.66
2023-03-28T06:18:18.783Z,54.46
2023-03-28T06:19:19.026Z,53.01
2023-03-28T06:20:18.765Z,54.79
2023-03-28T06:21:18.747Z,54.62
2023-03-28T06:22:18.766Z,53.50
2023-03-28T06:23:18.733Z,51.88
2023-03-28T06:24:18.719Z,53.98
2023-03-28T06:25:18.728Z,48.18
2023-03-28T06:26:18.714Z,48.66
2023-03-28T06:27:18.727Z,48.82
2023-03-28T06:28:18.690Z,51.24
2023-03-28T06:29:18.687Z,53.50
2023-03-28T06:30:18.674Z,51.24
2023-03-28T06:31:18.711Z,50.92
2023-03-28T06:32:18.683Z,52.85
2023-03-28T06:33:18.653Z,52.05
2023-03-28T06:34:18.662Z,49.47
2023-03-28T06:35:18.644Z,48.66
2023-03-28T06:36:18.624Z,53.17
2023-03-28T06:37:18.649Z,54.14
2023-03-28T06:38:18.683Z,57.04
2023-03-28T06:39:18.604Z,52.69
2023-03-28T06:40:18.595Z,56.07
2023-03-28T06:41:18.582Z,52.53
2023-03-28T06:42:18.610Z,53.33
2023-03-28T06:43:18.577Z,54.62
2023-03-28T06:44:18.556Z,48.50
2023-03-28T06:45:18.557Z,47.70
2023-03-28T06:46:18.544Z,50.11
2023-03-28T06:47:18.598Z,52.05
2023-03-28T06:48:18.536Z,54.95
2023-03-28T06:49:18.559Z,49.47
2023-03-28T06:50:18.522Z,57.52
2023-03-28T06:51:18.510Z,50.27
2023-03-28T06:52:18.526Z,54.30
2023-03-28T06:53:18.491Z,55.43
2023-03-28T06:54:18.506Z,51.72
2023-03-28T06:55:18.488Z,53.01
2023-03-28T06:56:18.476Z,54.62
2023-03-28T06:57:18.615Z,48.98
2023-03-28T06:58:18.453Z,53.66
2023-03-28T06:59:18.456Z,53.98
2023-03-28T07:00:18.445Z,53.17
2023-03-28T07:01:18.451Z,50.60
2023-03-28T07:02:18.480Z,50.27
2023-03-28T07:03:18.510Z,46.73
2023-03-28T07:04:18.404Z,54.14
2023-03-28T07:05:18.401Z,46.57
2023-03-28T07:06:18.386Z,52.05
2023-03-28T07:07:18.416Z,57.85
2023-03-28T07:08:18.377Z,55.43
2023-03-28T07:09:18.370Z,53.98
2023-03-28T07:10:18.390Z,59.14
2023-03-28T07:11:18.362Z,52.05
2023-03-28T07:12:18.379Z,54.95
2023-03-28T07:13:18.350Z,52.37
2023-03-28T07:14:18.331Z,54.14
2023-03-28T07:15:19.509Z,53.17
2023-03-28T07:16:19.333Z,51.88
2023-03-28T07:17:18.329Z,59.78
2023-03-28T07:18:18.297Z,49.63
2023-03-28T07:19:18.290Z,50.11
2023-03-28T07:20:18.289Z,58.01
2023-03-28T07:21:18.279Z,49.47
2023-03-28T07:22:18.302Z,49.63
2023-03-28T07:23:18.265Z,53.33
2023-03-28T07:24:18.253Z,49.31
2023-03-28T07:25:18.246Z,49.95
2023-03-28T07:26:18.228Z,46.89
2023-03-28T07:27:19.261Z,53.01
2023-03-28T07:28:18.261Z,53.82
2023-03-28T07:29:18.211Z,54.14
2023-03-28T07:30:18.235Z,51.56
2023-03-28T07:31:18.258Z,51.24
2023-03-28T07:32:18.224Z,49.79
2023-03-28T07:33:22.134Z,54.30
2023-03-28T07:34:20.210Z,53.98
2023-03-28T07:35:18.180Z,50.76
2023-03-28T07:36:18.242Z,54.95
2023-03-28T07:37:18.180Z,51.88
2023-03-28T07:38:18.146Z,51.40
2023-03-28T07:39:18.167Z,48.34
2023-03-28T07:40:18.148Z,51.72
2023-03-28T07:41:18.152Z,54.62
2023-03-28T07:42:18.137Z,50.92
2023-03-28T07:43:18.106Z,54.14
2023-03-28T07:44:18.088Z,55.43
2023-03-28T07:45:18.080Z,51.88
2023-03-28T07:46:18.122Z,50.92
2023-03-28T07:47:18.116Z,51.08
2023-03-28T07:48:18.061Z,51.88
2023-03-28T07:49:18.055Z,52.05
2023-03-28T07:50:18.046Z,50.60
2023-03-28T07:51:18.037Z,49.63
2023-03-28T07:52:18.054Z,52.05
2023-03-28T07:53:18.020Z,47.86
2023-03-28T07:54:18.145Z,49.63
2023-03-28T07:55:18.005Z,47.70
2023-03-28T07:56:17.993Z,53.01
2023-03-28T07:57:18.074Z,51.72
2023-03-28T07:58:17.977Z,43.18
2023-03-28T07:59:17.988Z,47.37
2023-03-28T08:00:17.966Z,46.57
2023-03-28T08:01:17.969Z,51.08
2023-03-28T08:02:17.978Z,48.18
2023-03-28T08:03:18.042Z,53.01
2023-03-28T08:04:17.942Z,48.02
2023-03-28T08:05:17.942Z,50.43
2023-03-28T08:06:31.679Z,52.21
2023-03-28T08:07:19.946Z,45.60
2023-03-28T08:08:17.914Z,45.76
2023-03-28T08:09:17.896Z,50.11
2023-03-28T08:10:17.892Z,47.86
2023-03-28T08:11:17.881Z,47.86
2023-03-28T08:12:17.899Z,49.95
2023-03-28T08:13:17.870Z,53.98
2023-03-28T08:14:17.860Z,45.28
2023-03-28T08:15:17.855Z,50.11
2023-03-28T08:16:17.902Z,45.76
2023-03-28T08:17:17.856Z,46.41
2023-03-28T08:18:17.860Z,47.21
2023-03-28T08:19:17.831Z,52.05
2023-03-28T08:20:18.644Z,50.11
2023-03-28T08:21:17.808Z,55.75
2023-03-28T08:22:17.815Z,52.85
2023-03-28T08:23:17.818Z,50.60
2023-03-28T08:24:29.021Z,47.86
2023-03-28T08:25:19.778Z,47.86
2023-03-28T08:26:17.775Z,48.98
2023-03-28T08:27:17.764Z,45.76
2023-03-28T08:28:17.785Z,50.43
2023-03-28T08:29:17.751Z,48.66
2023-03-28T08:30:17.744Z,49.95
2023-03-28T08:31:17.768Z,52.69
2023-03-28T08:32:17.726Z,49.15
2023-03-28T08:33:17.822Z,48.34
2023-03-28T08:34:17.745Z,48.66
2023-03-28T08:35:17.723Z,47.70
2023-03-28T08:36:17.765Z,46.89
2023-03-28T08:37:17.692Z,53.98
2023-03-28T08:38:17.712Z,53.50
2023-03-28T08:39:17.676Z,49.47
2023-03-28T08:40:17.681Z,46.73
2023-03-28T08:41:17.658Z,53.82
2023-03-28T08:42:17.652Z,47.70
2023-03-28T08:43:17.676Z,47.70
2023-03-28T08:44:17.633Z,47.70
2023-03-28T08:45:18.647Z,45.92
2023-03-28T08:46:17.728Z,48.66
2023-03-28T08:47:17.640Z,49.79
2023-03-28T08:48:17.638Z,44.31
2023-03-28T08:49:17.613Z,46.08
2023-03-28T08:50:17.605Z,51.56
2023-03-28T08:51:17.590Z,50.11
2023-03-28T08:52:17.586Z,50.11
2023-03-28T08:53:17.609Z,52.37
2023-03-28T08:54:17.567Z,52.05
2023-03-28T08:55:17.565Z,47.21
2023-03-28T08:56:17.555Z,46.25
2023-03-28T08:57:17.836Z,44.96
2023-03-28T08:58:17.547Z,50.11
2023-03-28T08:59:17.559Z,42.54
2023-03-28T09:00:17.574Z,46.89
2023-03-28T09:01:17.531Z,47.05
2023-03-28T09:02:17.606Z,48.82
2023-03-28T09:03:17.581Z,51.08
2023-03-28T09:04:17.581Z,49.63
2023-03-28T09:05:23.776Z,46.25
2023-03-28T09:06:19.485Z,49.79
2023-03-28T09:07:17.487Z,42.54
2023-03-28T09:08:19.744Z,45.92
2023-03-28T09:09:18.496Z,44.79
2023-03-28T09:10:17.460Z,44.96
2023-03-28T09:11:17.464Z,46.41
2023-03-28T09:12:17.442Z,49.15
2023-03-28T09:13:17.443Z,49.31
2023-03-28T09:14:17.463Z,46.57
2023-03-28T09:15:17.418Z,48.66
2023-03-28T09:16:17.469Z,45.28
2023-03-28T09:17:17.405Z,48.82
2023-03-28T09:18:17.397Z,50.60
2023-03-28T09:19:17.412Z,47.86
2023-03-28T09:20:17.383Z,49.47
2023-03-28T09:21:17.379Z,54.79
2023-03-28T09:22:17.366Z,51.40
2023-03-28T09:23:17.364Z,58.81
2023-03-28T09:24:17.373Z,54.79
2023-03-28T09:25:17.342Z,47.37
2023-03-28T09:26:17.458Z,47.53
2023-03-28T09:27:17.323Z,47.53
2023-03-28T09:28:17.314Z,49.63
2023-03-28T09:29:17.341Z,50.76
2023-03-28T09:30:17.297Z,48.02
2023-03-28T09:31:17.316Z,51.24
2023-03-28T09:32:17.339Z,53.82
2023-03-28T09:33:17.281Z,46.25
2023-03-28T09:34:17.298Z,49.47
2023-03-28T09:35:17.319Z,53.33
2023-03-28T09:36:17.310Z,52.37
2023-03-28T09:37:17.259Z,48.82
2023-03-28T09:38:17.235Z,47.53
2023-03-28T09:39:17.257Z,52.53
2023-03-28T09:40:17.222Z,46.89
2023-03-28T09:41:17.218Z,42.86
2023-03-28T09:42:17.217Z,46.73
2023-03-28T09:43:17.218Z,48.98
2023-03-28T09:44:17.225Z,48.82
2023-03-28T09:45:17.188Z,47.21
2023-03-28T09:46:17.195Z,43.18
2023-03-28T09:47:17.176Z,44.63
2023-03-28T09:48:19.144Z,44.63
2023-03-28T09:49:18.190Z,46.08
2023-03-28T09:50:17.165Z,46.57
2023-03-28T09:51:17.144Z,49.63
2023-03-28T09:52:17.130Z,46.57
2023-03-28T09:53:17.124Z,50.60
2023-03-28T09:54:17.119Z,46.73
2023-03-28T09:55:17.139Z,47.21
2023-03-28T09:56:17.101Z,49.31
2023-03-28T09:57:17.128Z,51.08
2023-03-28T09:58:17.089Z,48.50
2023-03-28T09:59:17.078Z,45.44
2023-03-28T10:00:17.115Z,53.33
2023-03-28T10:01:17.088Z,48.66
2023-03-28T10:02:17.058Z,51.56
2023-03-28T10:03:17.045Z,50.92
2023-03-28T10:04:17.108Z,48.02
2023-03-28T10:05:17.063Z,49.31
2023-03-28T10:06:17.028Z,50.92
2023-03-28T10:07:17.021Z,56.07
2023-03-28T10:08:17.015Z,50.27
2023-03-28T10:09:17.014Z,48.18
2023-03-28T10:10:17.045Z,49.95
2023-03-28T10:11:16.986Z,50.76
2023-03-28T10:12:16.980Z,52.21
2023-03-28T10:13:16.980Z,45.76
2023-03-28T10:14:16.965Z,46.57
2023-03-28T10:15:16.981Z,46.89
2023-03-28T10:16:16.961Z,47.05
2023-03-28T10:17:16.941Z,50.92
2023-03-28T10:18:16.998Z,49.31
2023-03-28T10:19:16.931Z,50.43
2023-03-28T10:20:17.023Z,47.21
2023-03-28T10:21:16.911Z,44.96
2023-03-28T10:22:16.920Z,44.63
2023-03-28T10:23:16.903Z,44.96
2023-03-28T10:24:16.891Z,48.02
2023-03-28T10:25:16.904Z,48.98
2023-03-28T10:26:16.889Z,52.53
2023-03-28T10:27:16.872Z,49.47
2023-03-28T10:28:16.857Z,51.24
2023-03-28T10:29:16.850Z,46.41
2023-03-28T10:30:16.867Z,50.60
2023-03-28T10:31:16.894Z,48.34
2023-03-28T10:32:16.826Z,54.95
2023-03-28T10:33:16.814Z,49.31
2023-03-28T10:34:16.800Z,52.85
2023-03-28T10:35:18.677Z,47.21
2023-03-28T10:36:16.855Z,45.92
2023-03-28T10:37:16.787Z,51.08
2023-03-28T10:38:16.858Z,51.24
2023-03-28T10:39:16.767Z,56.88
2023-03-28T10:40:16.923Z,53.98
2023-03-28T10:41:17.757Z,46.89
2023-03-28T10:42:16.760Z,46.08
2023-03-28T10:43:16.748Z,44.96
2023-03-28T10:44:16.733Z,48.66
2023-03-28T10:45:16.719Z,46.89
2023-03-28T10:46:16.751Z,43.02
2023-03-28T10:47:16.710Z,48.82
2023-03-28T10:48:16.704Z,49.95
2023-03-28T10:49:16.726Z,45.44
2023-03-28T10:50:16.721Z,42.38
2023-03-28T10:51:16.681Z,43.02
2023-03-28T10:52:16.670Z,43.83
2023-03-28T10:53:16.655Z,46.57
2023-03-28T10:54:16.650Z,49.47
2023-03-28T10:55:16.641Z,46.89
2023-03-28T10:56:16.663Z,49.31
2023-03-28T10:57:16.673Z,46.73
2023-03-28T10:58:16.621Z,47.53
2023-03-28T10:59:16.620Z,48.98
2023-03-28T11:00:16.611Z,43.99
2023-03-28T11:01:16.754Z,49.63
2023-03-28T11:02:16.652Z,50.92
2023-03-28T11:03:16.691Z,47.70
2023-03-28T11:04:16.582Z,44.79
2023-03-28T11:05:16.572Z,48.34
2023-03-28T11:06:16.595Z,48.98
2023-03-28T11:07:16.557Z,45.60
2023-03-28T11:08:16.554Z,48.98
2023-03-28T11:09:16.530Z,49.15
2023-03-28T11:10:16.525Z,48.50
2023-03-28T11:11:16.545Z,48.66
2023-03-28T11:12:26.589Z,46.89
2023-03-28T11:13:18.502Z,46.73
2023-03-28T11:14:16.493Z,46.41
2023-03-28T11:15:16.486Z,53.33
2023-03-28T11:16:16.545Z,48.98
2023-03-28T11:17:16.476Z,51.56
2023-03-28T11:18:16.460Z,49.79
2023-03-28T11:19:16.457Z,48.50
2023-03-28T11:20:16.447Z,46.25
2023-03-28T11:21:16.462Z,49.15
2023-03-28T11:22:16.429Z,49.79
2023-03-28T11:23:16.432Z,47.53
2023-03-28T11:24:16.421Z,45.60
2023-03-28T11:25:16.406Z,46.89
2023-03-28T11:26:16.431Z,47.70
2023-03-28T11:27:16.750Z,47.86
2023-03-28T11:28:16.384Z,50.11
2023-03-28T11:29:16.377Z,49.63
2023-03-28T11:30:16.379Z,47.21
2023-03-28T11:31:16.432Z,45.76
2023-03-28T11:32:16.355Z,44.79
2023-03-28T11:33:16.342Z,46.25
2023-03-28T11:34:16.352Z,49.31
2023-03-28T11:35:16.337Z,46.73
2023-03-28T11:36:16.356Z,44.96
2023-03-28T11:37:16.317Z,46.25
2023-03-28T11:38:16.309Z,49.63
2023-03-28T11:39:16.305Z,46.89
2023-03-28T11:40:16.296Z,48.18
2023-03-28T11:41:16.305Z,45.28
2023-03-28T11:42:16.270Z,45.92
2023-03-28T11:43:16.268Z,47.86
2023-03-28T11:44:16.272Z,46.08
2023-03-28T11:45:16.251Z,47.70
2023-03-28T11:46:16.323Z,47.53
2023-03-28T11:47:16.239Z,50.11
2023-03-28T11:48:16.205Z,48.34
2023-03-28T11:49:17.215Z,46.25
2023-03-28T11:50:16.203Z,43.83
2023-03-28T11:51:16.239Z,49.47
2023-03-28T11:52:16.192Z,44.15
2023-03-28T11:53:16.180Z,44.31
2023-03-28T11:54:16.177Z,46.41
2023-03-28T11:55:16.170Z,46.41
2023-03-28T11:56:16.182Z,48.34
2023-03-28T11:57:16.171Z,50.60
2023-03-28T11:58:16.141Z,45.44
2023-03-28T11:59:16.136Z,47.21
2023-03-28T12:00:32.209Z,44.15
2023-03-28T12:01:18.189Z,46.41
2023-03-28T12:02:16.163Z,50.76
2023-03-28T12:03:16.190Z,48.82
2023-03-28T12:04:16.140Z,49.15
2023-03-28T12:05:16.094Z,50.92
2023-03-28T12:06:16.121Z,50.60
2023-03-28T12:07:16.084Z,46.57
2023-03-28T12:08:16.059Z,50.92
2023-03-28T12:09:16.048Z,48.66
2023-03-28T12:10:16.048Z,50.43
2023-03-28T12:11:16.068Z,49.63
2023-03-28T12:12:16.026Z,51.88
2023-03-28T12:13:16.028Z,47.21
2023-03-28T12:14:16.008Z,49.63
2023-03-28T12:15:16.012Z,47.21
2023-03-28T12:16:16.056Z,54.14
2023-03-28T12:17:16.013Z,46.25
2023-03-28T12:18:15.970Z,51.08
2023-03-28T12:19:15.962Z,50.27
2023-03-28T12:20:15.959Z,48.34
2023-03-28T12:21:15.988Z,50.76
2023-03-28T12:22:15.940Z,46.73
2023-03-28T12:23:15.933Z,49.63
2023-03-28T12:24:15.919Z,48.18
2023-03-28T12:25:15.926Z,47.70
2023-03-28T12:26:15.918Z,43.51
2023-03-28T12:27:15.949Z,42.86
2023-03-28T12:28:15.892Z,48.02
2023-03-28T12:29:15.892Z,47.37
2023-03-28T12:30:15.876Z,48.98
2023-03-28T12:31:15.943Z,51.24
2023-03-28T12:32:15.882Z,49.47
2023-03-28T12:33:15.907Z,47.21
2023-03-28T12:34:15.848Z,47.37
2023-03-28T12:35:15.849Z,44.47
2023-03-28T12:36:15.868Z,47.53
2023-03-28T12:37:15.844Z,43.34
2023-03-28T12:38:15.818Z,52.21
2023-03-28T12:39:15.810Z,51.24
2023-03-28T12:40:15.794Z,51.40
2023-03-28T12:41:15.800Z,49.79
2023-03-28T12:42:15.810Z,51.08
2023-03-28T12:43:15.785Z,49.95
2023-03-28T12:44:15.770Z,50.76
2023-03-28T12:45:15.756Z,49.15
2023-03-28T12:46:15.810Z,50.27
2023-03-28T12:47:15.765Z,50.11
2023-03-28T12:48:15.739Z,45.12
2023-03-28T12:49:15.832Z,50.27
2023-03-28T12:50:15.718Z,48.34
2023-03-28T12:51:15.707Z,48.18
2023-03-28T12:52:15.729Z,49.63